Time;durP1;ratioP1;P1;durP2;ratioP2;P2;SDS_P1;SDS_P2;PMS_P1;PMS_P2;Temp;Humidity;BMP_temperature;BMP_pressure;BME280_temperature;BME280_humidity;BME280_pressure;Samples;Min_cycle;Max_cycle;Signal;HPM_P1;HPM_P2
2023/12/23 00:00:29;;;;;;;12.37;1.50;;;2.50;16.80;;;;;;5113090;28;20188;-50
2023/12/23 00:02:55;;;;;;;9.73;1.70;;;2.50;14.60;;;;;;5114021;28;20213;-51
2023/12/23 00:05:20;;;;;;;10.57;1.87;;;2.60;6.50;;;;;;5113803;28;20676;-51
2023/12/23 00:07:46;;;;;;;9.67;1.73;;;2.60;2.50;;;;;;5113417;28;20315;-49
2023/12/23 00:10:11;;;;;;;12.40;1.73;;;2.60;1.00;;;;;;5113892;28;20213;-52
2023/12/23 00:12:37;;;;;;;11.10;2.27;;;2.60;1.00;;;;;;5113770;28;20177;-51
2023/12/23 00:15:03;;;;;;;10.60;1.60;;;2.60;1.00;;;;;;5113574;28;20226;-50
2023/12/23 00:17:28;;;;;;;10.63;2.00;;;2.60;1.20;;;;;;5113642;28;20595;-49
2023/12/23 00:19:55;;;;;;;13.07;2.23;;;2.60;1.00;;;;;;5113046;28;20492;-51
2023/12/23 00:22:21;;;;;;;7.00;1.50;;;2.50;1.00;;;;;;5113812;28;20207;-51
2023/12/23 00:24:46;;;;;;;8.93;1.57;;;2.50;1.00;;;;;;5113741;28;20800;-51
2023/12/23 00:27:12;;;;;;;9.60;1.70;;;2.50;1.00;;;;;;5113208;28;20200;-50
2023/12/23 00:29:37;;;;;;;5.67;1.30;;;2.50;1.00;;;;;;5113511;28;20179;-51
2023/12/23 00:32:03;;;;;;;15.90;2.33;;;2.50;1.00;;;;;;5113302;28;20180;-51
2023/12/23 00:34:29;;;;;;;6.80;1.60;;;2.50;1.00;;;;;;5113246;28;20177;-51
2023/12/23 00:36:55;;;;;;;7.83;1.67;;;2.50;1.00;;;;;;5112869;28;20177;-50
2023/12/23 00:39:21;;;;;;;6.70;2.03;;;2.40;1.00;;;;;;5113255;28;20221;-50
2023/12/23 00:41:46;;;;;;;12.30;2.00;;;2.40;1.00;;;;;;5113585;28;20430;-51
2023/12/23 00:44:12;;;;;;;7.43;1.90;;;2.30;1.00;;;;;;5117056;28;20253;-51
2023/12/23 00:46:37;;;;;;;8.10;1.67;;;2.30;1.00;;;;;;5117790;28;20227;-51
2023/12/23 00:49:03;;;;;;;7.40;1.60;;;2.40;1.00;;;;;;5117499;28;20192;-51
2023/12/23 00:51:28;;;;;;;16.87;1.93;;;2.40;1.00;;;;;;5117866;28;20175;-51
2023/12/23 00:53:54;;;;;;;15.97;2.20;;;2.40;1.00;;;;;;5117738;28;20181;-50
2023/12/23 00:56:21;;;;;;;8.87;1.57;;;2.40;1.00;;;;;;5117433;28;20199;-51
2023/12/23 00:58:47;;;;;;;11.13;1.50;;;2.40;1.00;;;;;;5117700;28;20571;-51
2023/12/23 01:01:13;;;;;;;6.97;1.83;;;2.30;1.00;;;;;;5117713;28;20433;-50
2023/12/23 01:03:38;;;;;;;7.50;1.93;;;2.30;1.00;;;;;;5117172;28;20511;-50
2023/12/23 01:06:04;;;;;;;9.37;2.27;;;2.20;1.00;;;;;;5117466;28;20178;-50
2023/12/23 01:08:30;;;;;;;8.63;1.70;;;2.10;1.00;;;;;;5117328;28;20222;-50
2023/12/23 01:10:56;;;;;;;10.83;2.40;;;2.10;1.00;;;;;;5117381;28;20180;-50
2023/12/23 01:13:21;;;;;;;16.67;2.00;;;2.10;1.00;;;;;;5117244;28;20214;-51
2023/12/23 01:15:47;;;;;;;26.27;3.70;;;2.10;2.80;;;;;;5117373;28;20181;-51
2023/12/23 01:18:13;;;;;;;9.83;1.80;;;2.10;4.10;;;;;;5116723;28;20183;-51
2023/12/23 01:20:40;;;;;;;8.67;2.00;;;2.00;7.30;;;;;;5117131;28;20506;-51
2023/12/23 01:23:06;;;;;;;11.50;1.93;;;2.00;15.50;;;;;;5117351;28;20184;-51
2023/12/23 01:25:31;;;;;;;12.00;1.83;;;2.00;16.10;;;;;;5117239;28;20417;-51
2023/12/23 01:28:00;;;;;;;6.80;1.50;;;2.00;11.80;;;;;;5116915;28;20413;-50
2023/12/23 01:30:26;;;;;;;10.23;1.50;;;2.10;4.70;;;;;;5117038;28;20204;-50
2023/12/23 01:32:52;;;;;;;6.53;1.63;;;2.20;3.60;;;;;;5117054;28;20981;-50
2023/12/23 01:35:17;;;;;;;13.47;2.17;;;2.20;1.00;;;;;;5098450;28;20596;-50
2023/12/23 01:37:43;;;;;;;9.20;1.70;;;2.20;1.00;;;;;;5116701;28;20417;-50
2023/12/23 01:40:09;;;;;;;13.67;2.40;;;2.30;2.80;;;;;;5116449;28;20211;-51
2023/12/23 01:42:36;;;;;;;11.47;2.13;;;2.40;1.00;;;;;;5116470;28;20188;-51
2023/12/23 01:45:03;;;;;;;15.97;1.93;;;2.50;1.00;;;;;;5117023;28;20452;-51
2023/12/23 01:47:29;;;;;;;11.23;2.13;;;2.60;1.00;;;;;;5115443;28;20477;-52
2023/12/23 01:49:56;;;;;;;10.47;2.00;;;2.70;1.00;;;;;;5112916;28;20418;-52
2023/12/23 01:52:22;;;;;;;8.73;2.00;;;2.70;1.00;;;;;;5114391;28;20486;-51
2023/12/23 01:54:48;;;;;;;12.53;1.80;;;2.70;3.30;;;;;;5113674;28;20765;-51
2023/12/23 01:57:14;;;;;;;14.70;2.30;;;2.70;9.80;;;;;;5114312;28;20415;-52
2023/12/23 01:59:39;;;;;;;13.77;2.80;;;2.70;12.90;;;;;;5113414;28;20219;-52
2023/12/23 02:02:06;;;;;;;18.53;2.53;;;2.70;15.70;;;;;;5114224;28;20177;-52
2023/12/23 02:04:31;;;;;;;10.73;2.20;;;2.70;21.40;;;;;;5113448;28;20181;-51
2023/12/23 02:06:57;;;;;;;19.57;2.47;;;2.70;22.40;;;;;;5113599;28;20856;-51
2023/12/23 02:09:23;;;;;;;12.13;2.53;;;2.70;37.00;;;;;;5112789;28;20213;-52
2023/12/23 02:12:09;;;;;;;16.77;2.27;;;2.70;43.60;;;;;;5114061;28;20181;-52
2023/12/23 02:14:38;;;;;;;10.07;1.80;;;2.80;45.60;;;;;;5114588;28;20581;-52
2023/12/23 02:17:03;;;;;;;9.13;2.17;;;2.90;45.40;;;;;;5113042;28;20785;-52
2023/12/23 02:19:29;;;;;;;14.90;2.63;;;3.00;44.50;;;;;;5113437;28;20458;-52
2023/12/23 02:21:54;;;;;;;8.90;1.70;;;3.00;40.30;;;;;;5112393;28;20706;-52
2023/12/23 02:24:20;;;;;;;9.50;1.70;;;3.00;65.90;;;;;;5114176;28;20177;-51
2023/12/23 02:26:53;;;;;;;13.67;3.50;;;3.10;47.00;;;;;;5113309;28;20707;-52
2023/12/23 02:29:20;;;;;;;11.33;2.10;;;3.10;43.30;;;;;;5113536;28;20508;-51
2023/12/23 02:31:47;;;;;;;13.33;2.40;;;3.10;48.00;;;;;;5112815;28;20533;-52
2023/12/23 02:34:13;;;;;;;12.60;2.40;;;3.20;39.10;;;;;;5113112;28;20505;-51
2023/12/23 02:36:39;;;;;;;14.97;2.23;;;3.20;35.40;;;;;;5113491;28;20412;-51
2023/12/23 02:39:04;;;;;;;8.47;1.63;;;3.30;25.40;;;;;;5113172;28;20461;-51
2023/12/23 02:41:30;;;;;;;15.57;2.70;;;3.30;22.70;;;;;;5113273;28;20418;-51
2023/12/23 02:43:55;;;;;;;10.43;1.83;;;3.30;17.00;;;;;;5112287;28;20181;-51
2023/12/23 02:46:21;;;;;;;13.97;1.80;;;3.40;15.00;;;;;;5112290;28;20187;-51
2023/12/23 02:48:47;;;;;;;11.07;2.00;;;3.40;12.00;;;;;;5113391;28;20586;-52
2023/12/23 02:51:13;;;;;;;8.37;2.30;;;3.40;13.50;;;;;;5113615;28;20445;-52
2023/12/23 02:53:38;;;;;;;12.97;2.57;;;3.40;15.00;;;;;;5112441;28;20203;-52
2023/12/23 02:56:04;;;;;;;14.97;2.80;;;3.50;6.50;;;;;;5113185;28;20177;-52
2023/12/23 02:58:30;;;;;;;7.83;2.47;;;3.50;1.00;;;;;;5112225;28;20209;-52
2023/12/23 03:00:55;;;;;;;12.80;1.80;;;3.60;1.00;;;;;;5113141;28;20429;-52
2023/12/23 03:03:21;;;;;;;7.03;1.40;;;3.50;1.00;;;;;;5112820;28;20241;-52
2023/12/23 03:05:46;;;;;;;7.53;2.43;;;3.60;1.00;;;;;;5111774;28;20169;-52
2023/12/23 03:08:12;;;;;;;11.10;1.83;;;3.60;1.00;;;;;;5112654;28;20259;-51
2023/12/23 03:10:38;;;;;;;10.60;2.17;;;3.70;1.00;;;;;;5113074;28;20181;-51
2023/12/23 03:13:03;;;;;;;6.43;1.63;;;3.70;1.00;;;;;;5111880;28;20277;-52
2023/12/23 03:15:29;;;;;;;11.47;2.00;;;3.80;1.00;;;;;;5112428;28;20173;-52
2023/12/23 03:17:54;;;;;;;12.10;1.70;;;3.70;1.00;;;;;;5112795;28;20215;-52
2023/12/23 03:20:20;;;;;;;7.20;1.50;;;3.80;1.00;;;;;;5112076;28;20232;-52
2023/12/23 03:22:45;;;;;;;11.53;1.93;;;3.80;1.00;;;;;;5112411;28;20229;-52
2023/12/23 03:25:11;;;;;;;14.80;2.00;;;3.80;9.50;;;;;;5112719;28;20185;-52
2023/12/23 03:27:37;;;;;;;11.33;2.03;;;3.80;10.80;;;;;;5112280;28;20187;-52
2023/12/23 03:30:03;;;;;;;8.80;1.47;;;3.80;9.20;;;;;;5111754;28;20275;-52
2023/12/23 03:32:28;;;;;;;11.17;2.20;;;3.80;12.00;;;;;;5110927;28;20173;-52
2023/12/23 03:34:54;;;;;;;13.80;1.90;;;3.80;8.80;;;;;;5113201;28;20416;-52
2023/12/23 03:37:19;;;;;;;13.70;1.90;;;3.80;1.00;;;;;;5111713;28;20176;-52
2023/12/23 03:39:45;;;;;;;5.40;1.50;;;3.80;1.00;;;;;;5112173;28;20243;-52
2023/12/23 03:42:11;;;;;;;6.67;2.27;;;3.90;1.00;;;;;;5111183;28;20709;-52
2023/12/23 03:44:37;;;;;;;13.73;2.40;;;3.80;1.00;;;;;;5111608;28;20765;-53
2023/12/23 03:47:02;;;;;;;5.80;1.50;;;3.80;1.00;;;;;;5111507;28;20325;-52
2023/12/23 03:49:28;;;;;;;5.87;1.47;;;3.90;1.00;;;;;;5112294;28;20186;-52
2023/12/23 03:51:53;;;;;;;6.40;1.20;;;3.80;1.00;;;;;;5111818;28;20188;-53
2023/12/23 03:54:19;;;;;;;8.43;2.00;;;3.90;3.20;;;;;;5111617;28;20656;-53
2023/12/23 03:56:44;;;;;;;5.83;1.30;;;3.90;9.80;;;;;;5111418;28;20182;-51
2023/12/23 03:59:10;;;;;;;3.93;1.10;;;3.90;13.40;;;;;;5111563;28;20690;-50
2023/12/23 04:01:35;;;;;;;6.80;1.83;;;3.80;99.20;;;;;;5111179;28;20178;-51
2023/12/23 04:04:01;;;;;;;4.07;1.37;;;3.70;99.90;;;;;;5112335;28;20619;-50
2023/12/23 04:06:27;;;;;;;5.47;1.50;;;3.60;99.90;;;;;;5110576;28;21573;-50
2023/12/23 04:08:53;;;;;;;5.60;1.57;;;3.50;99.90;;;;;;5111714;28;20266;-51
2023/12/23 04:11:18;;;;;;;17.30;1.90;;;3.40;1.00;;;;;;5110570;28;20991;-51
2023/12/23 04:13:44;;;;;;;5.40;1.40;;;3.20;1.00;;;;;;5112178;28;21030;-51
2023/12/23 04:16:09;;;;;;;9.50;1.43;;;3.00;99.90;;;;;;5111824;28;20608;-51
2023/12/23 04:18:35;;;;;;;7.90;1.40;;;2.80;1.00;;;;;;5109456;28;20213;-51
2023/12/23 04:21:00;;;;;;;6.93;1.40;;;2.70;99.90;;;;;;5110679;28;20183;-50
2023/12/23 04:23:26;;;;;;;13.93;1.60;;;2.70;99.90;;;;;;5110565;28;20232;-51
2023/12/23 04:25:52;;;;;;;5.07;1.30;;;2.70;99.90;;;;;;5111652;28;20184;-51
2023/12/23 04:28:24;;;;;;;5.77;1.40;;;2.70;99.90;;;;;;5110925;28;20173;-51
2023/12/23 04:30:53;;;;;;;10.17;1.70;;;2.70;2.60;;;;;;5111673;28;20229;-51
2023/12/23 04:33:19;;;;;;;10.90;1.67;;;2.80;1.00;;;;;;5110745;28;20416;-51
2023/12/23 04:35:45;;;;;;;7.17;1.47;;;2.90;1.00;;;;;;5110703;28;20442;-51
2023/12/23 04:38:11;;;;;;;9.27;1.50;;;3.00;99.90;;;;;;5111123;28;20942;-51
2023/12/23 04:40:37;;;;;;;5.60;1.33;;;3.10;99.90;;;;;;5111553;28;20209;-51
2023/12/23 04:43:02;;;;;;;11.37;1.73;;;3.20;99.90;;;;;;5111560;28;20417;-51
2023/12/23 04:45:28;;;;;;;15.57;1.60;;;3.20;99.90;;;;;;5110353;28;20417;-51
2023/12/23 04:47:54;;;;;;;11.30;1.70;;;3.20;1.00;;;;;;5110910;28;20184;-51
2023/12/23 04:50:19;;;;;;;11.20;1.57;;;3.30;1.00;;;;;;5111367;28;20553;-51
2023/12/23 04:52:45;;;;;;;5.50;1.40;;;3.30;1.00;;;;;;5110736;28;20638;-51
2023/12/23 04:55:10;;;;;;;10.33;1.83;;;3.30;1.00;;;;;;5111263;28;20181;-51
2023/12/23 04:57:36;;;;;;;8.57;1.10;;;3.30;99.90;;;;;;5110427;28;20254;-51
2023/12/23 05:00:05;;;;;;;10.27;1.30;;;3.40;99.90;;;;;;5111667;28;20293;-51
2023/12/23 05:02:32;;;;;;;5.73;1.47;;;3.40;99.90;;;;;;5109803;28;20425;-51
2023/12/23 05:04:58;;;;;;;4.17;1.27;;;3.30;99.90;;;;;;5111549;28;20407;-51
2023/12/23 05:07:24;;;;;;;9.13;1.70;;;3.40;1.00;;;;;;5111146;28;20519;-51
2023/12/23 05:09:49;;;;;;;6.13;2.10;;;3.40;1.00;;;;;;5109947;28;20422;-51
2023/12/23 05:12:15;;;;;;;6.57;1.40;;;3.30;1.00;;;;;;5110780;28;20214;-51
2023/12/23 05:14:41;;;;;;;3.83;1.30;;;3.30;99.90;;;;;;5110663;28;20631;-51
2023/12/23 05:17:06;;;;;;;8.57;1.40;;;3.30;1.00;;;;;;5110960;28;20183;-51
2023/12/23 05:19:34;;;;;;;5.70;1.30;;;3.40;99.90;;;;;;5110909;28;20212;-51
2023/12/23 05:21:59;;;;;;;4.33;1.00;;;3.30;1.00;;;;;;5110141;28;20177;-51
2023/12/23 05:24:26;;;;;;;4.20;1.10;;;3.20;1.00;;;;;;5110757;28;20416;-51
2023/12/23 05:26:51;;;;;;;6.60;1.33;;;3.10;99.90;;;;;;5111056;28;20231;-51
2023/12/23 05:29:17;;;;;;;5.57;1.50;;;3.10;9.80;;;;;;5112570;28;20421;-51
2023/12/23 05:31:42;;;;;;;3.07;1.10;;;3.00;27.00;;;;;;5112889;28;20181;-51
2023/12/23 05:34:08;;;;;;;7.10;1.50;;;3.00;99.90;;;;;;5114630;28;20172;-51
2023/12/23 05:36:33;;;;;;;7.40;1.50;;;3.10;1.00;;;;;;5114019;28;20216;-51
2023/12/23 05:38:59;;;;;;;8.33;1.70;;;3.10;1.00;;;;;;5114905;28;20306;-50
2023/12/23 05:41:25;;;;;;;14.57;1.90;;;3.20;22.40;;;;;;5114142;28;20204;-51
2023/12/23 05:43:50;;;;;;;6.20;1.40;;;3.10;99.90;;;;;;5113391;28;20191;-51
2023/12/23 05:46:16;;;;;;;5.43;1.30;;;3.20;99.90;;;;;;5114275;28;20184;-51
2023/12/23 05:48:41;;;;;;;5.13;1.13;;;3.20;99.90;;;;;;5114075;28;20225;-51
2023/12/23 05:51:08;;;;;;;9.10;1.83;;;3.20;99.90;;;;;;5114019;28;20173;-51
2023/12/23 05:53:34;;;;;;;8.73;1.43;;;3.20;27.30;;;;;;5114083;28;20303;-51
2023/12/23 05:56:04;;;;;;;8.80;1.90;;;3.20;99.90;;;;;;5113987;28;20853;-51
2023/12/23 05:58:30;;;;;;;9.80;2.10;;;3.30;1.00;;;;;;5113438;28;20211;-50
2023/12/23 06:00:56;;;;;;;6.70;2.23;;;3.30;1.00;;;;;;5113502;28;20414;-51
2023/12/23 06:03:21;;;;;;;9.97;1.73;;;3.40;1.00;;;;;;5114302;28;20467;-51
2023/12/23 06:05:47;;;;;;;5.20;1.33;;;3.40;1.00;;;;;;5113964;28;20260;-51
2023/12/23 06:08:13;;;;;;;3.97;1.23;;;3.40;99.90;;;;;;5114022;28;20279;-50
2023/12/23 06:10:39;;;;;;;7.60;2.00;;;3.40;81.80;;;;;;5114490;28;20176;-51
2023/12/23 06:13:04;;;;;;;9.67;1.53;;;3.30;1.00;;;;;;5112794;28;20548;-51
2023/12/23 06:15:30;;;;;;;8.50;2.00;;;3.30;1.80;;;;;;5113792;28;20176;-51
2023/12/23 06:17:55;;;;;;;10.70;1.60;;;3.30;13.40;;;;;;5114253;28;20177;-51
2023/12/23 06:20:21;;;;;;;5.80;1.00;;;3.30;1.00;;;;;;5113311;28;20323;-51
2023/12/23 06:22:46;;;;;;;10.53;1.83;;;3.30;1.00;;;;;;5112572;28;20240;-51
2023/12/23 06:25:12;;;;;;;16.13;2.23;;;3.30;1.00;;;;;;5114198;28;20174;-51
2023/12/23 06:27:37;;;;;;;4.63;1.50;;;3.20;1.00;;;;;;5112749;28;20186;-51
2023/12/23 06:30:03;;;;;;;12.10;1.73;;;3.20;1.00;;;;;;5113285;28;20712;-51
2023/12/23 06:32:29;;;;;;;4.50;1.30;;;3.20;99.90;;;;;;5113610;28;20647;-51
2023/12/23 06:34:54;;;;;;;5.70;1.03;;;3.20;99.90;;;;;;5094660;28;20268;-52
2023/12/23 06:37:20;;;;;;;5.37;1.77;;;3.20;99.90;;;;;;5113719;28;20202;-52
2023/12/23 06:39:45;;;;;;;9.33;1.53;;;3.20;1.00;;;;;;5112827;28;20219;-52
2023/12/23 06:42:11;;;;;;;7.83;1.87;;;3.20;70.00;;;;;;5111875;28;20700;-52
2023/12/23 06:44:36;;;;;;;11.10;1.67;;;3.20;99.90;;;;;;5112914;28;20650;-52
2023/12/23 06:47:02;;;;;;;3.60;1.30;;;3.20;99.90;;;;;;5113534;28;20627;-53
2023/12/23 06:49:28;;;;;;;5.17;1.53;;;3.10;99.90;;;;;;5111667;28;20642;-52
2023/12/23 06:51:54;;;;;;;5.97;1.43;;;3.20;1.00;;;;;;5113356;28;20180;-51
2023/12/23 06:54:20;;;;;;;8.63;1.57;;;3.20;1.00;;;;;;5113056;28;20541;-51
2023/12/23 06:56:45;;;;;;;10.30;1.70;;;3.20;1.00;;;;;;5113419;28;20403;-51
2023/12/23 06:59:12;;;;;;;6.00;1.97;;;3.00;99.90;;;;;;5113320;28;20243;-51
2023/12/23 07:01:39;;;;;;;8.17;1.73;;;2.90;99.90;;;;;;5112181;28;20185;-51
2023/12/23 07:04:06;;;;;;;5.60;1.50;;;2.90;99.90;;;;;;5112019;28;20829;-53
2023/12/23 07:06:32;;;;;;;6.10;1.60;;;2.80;99.90;;;;;;5112081;28;20469;-51
2023/12/23 07:08:58;;;;;;;6.67;1.80;;;2.70;99.90;;;;;;5112584;28;20423;-51
2023/12/23 07:11:24;;;;;;;2.60;1.30;;;2.60;1.00;;;;;;5113297;28;20173;-52
2023/12/23 07:13:51;;;;;;;2.47;1.37;;;2.60;99.90;;;;;;5111080;28;20183;-51
2023/12/23 07:16:17;;;;;;;2.23;1.10;;;2.50;1.00;;;;;;5111539;28;20434;-51
2023/12/23 07:18:43;;;;;;;6.87;1.73;;;2.50;1.00;;;;;;5112937;28;20807;-52
2023/12/23 07:21:08;;;;;;;4.13;1.30;;;2.50;1.00;;;;;;5113975;28;20422;-52
2023/12/23 07:23:34;;;;;;;10.33;1.60;;;2.40;1.00;;;;;;5113034;28;20739;-52
2023/12/23 07:26:00;;;;;;;2.50;1.40;;;2.30;1.00;;;;;;5110433;28;20187;-51
2023/12/23 07:28:25;;;;;;;3.07;1.33;;;2.30;1.00;;;;;;5111213;28;20188;-52
2023/12/23 07:30:51;;;;;;;3.97;1.90;;;2.20;1.00;;;;;;5112991;28;20572;-52
2023/12/23 07:33:17;;;;;;;5.00;1.53;;;2.20;1.00;;;;;;5113274;28;20176;-51
2023/12/23 07:35:42;;;;;;;2.40;1.40;;;2.10;1.00;;;;;;5112292;28;20773;-51
2023/12/23 07:38:08;;;;;;;1.40;1.20;;;2.00;1.00;;;;;;5091792;28;20186;-51
2023/12/23 07:40:35;;;;;;;3.43;1.50;;;2.00;1.00;;;;;;5111015;28;20743;-51
2023/12/23 07:43:01;;;;;;;3.13;1.23;;;1.90;1.00;;;;;;5113172;28;20410;-52
2023/12/23 07:45:26;;;;;;;3.13;1.33;;;1.90;1.00;;;;;;5112465;28;20920;-52
2023/12/23 07:47:52;;;;;;;5.30;1.77;;;1.80;1.00;;;;;;5111669;28;20409;-52
2023/12/23 07:50:17;;;;;;;6.67;1.50;;;1.80;1.00;;;;;;5111488;28;20299;-52
2023/12/23 07:52:43;;;;;;;4.73;1.50;;;1.70;1.00;;;;;;5111518;28;20642;-52
2023/12/23 07:55:08;;;;;;;3.67;1.30;;;1.80;1.00;;;;;;5111795;28;20610;-52
2023/12/23 07:57:34;;;;;;;6.67;1.37;;;1.80;1.00;;;;;;5111851;28;20635;-52
2023/12/23 07:59:59;;;;;;;4.63;1.40;;;1.70;1.00;;;;;;5111415;28;20548;-52
2023/12/23 08:02:25;;;;;;;3.60;1.07;;;1.70;1.00;;;;;;5110296;28;20634;-52
2023/12/23 08:04:51;;;;;;;4.23;1.23;;;1.70;1.00;;;;;;5111915;28;20213;-52
2023/12/23 08:07:16;;;;;;;5.33;1.67;;;1.70;1.00;;;;;;5111820;28;20591;-52
2023/12/23 08:09:42;;;;;;;3.30;1.60;;;1.60;1.00;;;;;;5111427;28;20275;-52
2023/12/23 08:12:08;;;;;;;2.70;1.37;;;1.60;1.00;;;;;;5110237;28;20202;-52
2023/12/23 08:14:34;;;;;;;3.73;1.57;;;1.60;1.00;;;;;;5111555;28;20185;-52
2023/12/23 08:17:00;;;;;;;1.97;1.30;;;1.60;1.00;;;;;;5112129;28;21025;-52
2023/12/23 08:19:25;;;;;;;5.40;1.80;;;1.60;1.00;;;;;;5112220;28;20220;-52
2023/12/23 08:21:51;;;;;;;4.43;1.70;;;1.60;1.00;;;;;;5109850;28;20460;-52
2023/12/23 08:24:16;;;;;;;6.50;1.83;;;1.60;1.00;;;;;;5111799;28;20180;-51
2023/12/23 08:26:42;;;;;;;3.40;1.93;;;1.50;1.00;;;;;;5110535;28;20185;-52
2023/12/23 08:29:08;;;;;;;5.40;2.27;;;1.50;1.00;;;;;;5111438;28;20183;-52
2023/12/23 08:31:33;;;;;;;3.10;1.90;;;1.50;1.00;;;;;;5112065;28;20176;-53
2023/12/23 08:33:59;;;;;;;4.73;2.17;;;1.50;1.00;;;;;;5110310;28;20180;-53
2023/12/23 08:36:24;;;;;;;3.87;2.17;;;1.50;1.00;;;;;;5111325;28;20177;-52
2023/12/23 08:38:50;;;;;;;3.90;2.60;;;1.60;1.00;;;;;;5111223;28;20540;-52
2023/12/23 08:41:15;;;;;;;6.50;2.43;;;1.60;1.00;;;;;;5111258;28;20209;-53
2023/12/23 08:43:41;;;;;;;6.60;3.00;;;1.60;1.00;;;;;;5110836;28;20705;-53
2023/12/23 08:46:07;;;;;;;5.73;2.57;;;1.60;1.00;;;;;;5111052;28;20176;-52
2023/12/23 08:48:33;;;;;;;8.17;4.17;;;1.70;1.00;;;;;;5110834;28;20192;-53
2023/12/23 08:50:58;;;;;;;7.07;3.10;;;1.70;4.50;;;;;;5111224;28;20407;-52
2023/12/23 08:53:24;;;;;;;9.10;3.70;;;1.70;1.00;;;;;;5109972;28;20245;-53
2023/12/23 08:55:50;;;;;;;7.13;3.40;;;1.70;4.70;;;;;;5110598;28;20183;-53
2023/12/23 08:58:15;;;;;;;6.00;3.63;;;1.80;20.00;;;;;;5110920;28;20177;-53
2023/12/23 09:00:41;;;;;;;7.27;4.00;;;1.80;23.90;;;;;;5111831;28;20646;-53
2023/12/23 09:03:06;;;;;;;13.03;4.20;;;1.80;32.50;;;;;;5110587;28;20184;-53
2023/12/23 09:05:32;;;;;;;5.20;2.77;;;1.90;34.80;;;;;;5114238;28;20180;-52
2023/12/23 09:07:58;;;;;;;7.87;2.70;;;1.90;27.40;;;;;;5114615;28;20623;-52
2023/12/23 09:10:23;;;;;;;4.60;2.53;;;2.00;26.60;;;;;;5115465;28;20187;-53
2023/12/23 09:12:49;;;;;;;6.27;3.07;;;2.00;14.80;;;;;;5114908;28;20174;-52
2023/12/23 09:15:14;;;;;;;7.40;2.57;;;2.00;8.10;;;;;;5114063;28;20176;-53
2023/12/23 09:17:40;;;;;;;7.83;2.33;;;2.10;18.90;;;;;;5113960;28;20172;-53
2023/12/23 09:20:06;;;;;;;4.07;2.30;;;2.10;22.40;;;;;;5115498;28;20220;-53
2023/12/23 09:22:32;;;;;;;3.07;2.40;;;2.20;17.80;;;;;;5114691;28;20276;-53
2023/12/23 09:24:58;;;;;;;5.43;2.27;;;2.20;22.30;;;;;;5114139;28;20498;-53
2023/12/23 09:27:23;;;;;;;5.33;2.13;;;2.20;25.20;;;;;;5114172;28;20184;-53
2023/12/23 09:29:49;;;;;;;2.80;2.10;;;2.20;29.10;;;;;;5114046;28;20194;-53
2023/12/23 09:32:15;;;;;;;2.90;1.50;;;2.30;29.20;;;;;;5114993;28;20225;-53
2023/12/23 09:34:40;;;;;;;6.00;1.70;;;2.30;29.40;;;;;;5114444;28;20612;-52
2023/12/23 09:37:06;;;;;;;5.60;1.90;;;2.40;36.20;;;;;;5113171;28;20184;-52
2023/12/23 09:39:31;;;;;;;5.63;1.53;;;2.40;28.30;;;;;;5114443;28;20314;-52
2023/12/23 09:41:59;;;;;;;5.80;2.10;;;2.50;31.10;;;;;;5113692;28;20181;-51
2023/12/23 09:44:25;;;;;;;2.93;1.47;;;2.50;30.00;;;;;;5114786;28;20184;-51
2023/12/23 09:46:50;;;;;;;7.90;2.13;;;2.50;39.30;;;;;;5113632;28;20459;-51
2023/12/23 09:49:16;;;;;;;8.57;1.90;;;2.60;50.30;;;;;;5113458;28;20590;-51
2023/12/23 09:51:44;;;;;;;5.50;1.50;;;2.60;58.80;;;;;;5115127;28;20684;-51
2023/12/23 09:54:19;;;;;;;5.13;1.30;;;2.70;61.30;;;;;;5113378;28;20210;-51
2023/12/23 09:56:46;;;;;;;4.67;1.20;;;2.70;64.60;;;;;;5114556;28;20407;-50
2023/12/23 09:59:12;;;;;;;6.10;1.80;;;2.80;62.80;;;;;;5113434;28;20460;-50
2023/12/23 10:01:38;;;;;;;4.93;2.60;;;2.80;76.90;;;;;;5112484;28;20482;-50
2023/12/23 10:04:03;;;;;;;5.33;1.20;;;2.90;74.30;;;;;;5114861;28;20184;-51
2023/12/23 10:06:29;;;;;;;13.27;1.37;;;3.00;89.50;;;;;;5112928;28;20247;-51
2023/12/23 10:08:54;;;;;;;5.73;1.53;;;3.10;89.50;;;;;;5113017;28;20195;-50
2023/12/23 10:11:20;;;;;;;2.03;1.23;;;3.10;87.90;;;;;;5113989;28;20173;-51
2023/12/23 10:13:46;;;;;;;2.80;1.17;;;3.20;86.70;;;;;;5113369;28;20203;-50
2023/12/23 10:16:13;;;;;;;3.97;1.63;;;3.30;88.30;;;;;;5114404;28;20178;-50
2023/12/23 10:18:40;;;;;;;5.67;1.20;;;3.30;84.80;;;;;;5113839;28;20677;-50
2023/12/23 10:21:06;;;;;;;7.70;1.23;;;3.40;87.30;;;;;;5113277;28;20411;-50
2023/12/23 10:23:33;;;;;;;3.10;1.13;;;3.40;79.00;;;;;;5113603;28;20402;-50
2023/12/23 10:25:59;;;;;;;4.30;1.60;;;3.40;62.70;;;;;;5113648;28;20421;-49
2023/12/23 10:28:25;;;;;;;11.10;1.27;;;3.50;53.30;;;;;;5113186;28;20409;-50
2023/12/23 10:30:54;;;;;;;3.17;1.40;;;3.50;55.80;;;;;;5113933;28;20214;-50
2023/12/23 10:33:23;;;;;;;2.70;1.03;;;3.50;63.40;;;;;;5113033;28;20893;-52
2023/12/23 10:35:50;;;;;;;4.90;1.23;;;3.60;67.50;;;;;;5113398;28;20502;-54
2023/12/23 10:38:18;;;;;;;4.07;1.70;;;3.60;54.00;;;;;;5114488;28;20418;-52
2023/12/23 10:41:16;;;;;;;7.23;1.30;;;3.60;59.40;;;;;;5113223;28;20439;-53
2023/12/23 10:43:43;;;;;;;8.10;1.30;;;3.60;68.30;;;;;;5111294;28;20425;-55
2023/12/23 10:46:10;;;;;;;6.27;1.77;;;3.70;70.40;;;;;;5113743;28;20429;-53
2023/12/23 10:48:37;;;;;;;4.50;1.60;;;3.80;77.90;;;;;;5112402;28;20407;-52
2023/12/23 10:51:03;;;;;;;2.40;1.60;;;3.70;48.30;;;;;;5113517;28;20413;-53
2023/12/23 10:53:30;;;;;;;4.60;1.67;;;3.80;56.50;;;;;;5112583;28;20554;-53
2023/12/23 10:55:55;;;;;;;3.53;1.83;;;3.80;56.40;;;;;;5113538;28;20418;-53
2023/12/23 10:58:21;;;;;;;4.37;1.77;;;3.80;51.70;;;;;;5112865;28;20439;-53
2023/12/23 11:00:48;;;;;;;9.43;2.07;;;3.80;67.90;;;;;;5112446;28;20632;-53
2023/12/23 11:03:15;;;;;;;5.37;2.27;;;3.80;66.00;;;;;;5112061;28;20236;-52
2023/12/23 11:05:42;;;;;;;3.40;1.40;;;3.90;79.80;;;;;;5094523;28;20846;-53
2023/12/23 11:08:14;;;;;;;8.10;2.03;;;3.90;90.60;;;;;;5112232;28;20473;-53
2023/12/23 11:10:41;;;;;;;3.80;1.87;;;4.00;93.90;;;;;;5112033;28;20401;-53
2023/12/23 11:13:07;;;;;;;6.33;2.23;;;4.00;90.90;;;;;;5112545;28;20418;-53
2023/12/23 11:15:36;;;;;;;8.00;1.97;;;4.00;59.70;;;;;;5112766;28;20906;-55
2023/12/23 11:18:02;;;;;;;2.63;1.93;;;4.00;57.40;;;;;;5112685;28;20430;-53
2023/12/23 11:20:35;;;;;;;2.03;1.80;;;4.00;60.40;;;;;;5112005;28;20461;-54
2023/12/23 11:23:26;;;;;;;3.00;2.20;;;4.10;50.60;;;;;;5111937;28;20184;-54
2023/12/23 11:25:54;;;;;;;5.53;2.30;;;4.00;42.00;;;;;;5111446;28;20435;-55
2023/12/23 11:28:20;;;;;;;5.17;2.10;;;4.00;59.20;;;;;;5113295;28;20509;-54
2023/12/23 11:30:56;;;;;;;4.50;2.20;;;4.10;53.00;;;;;;5112363;28;20444;-54
2023/12/23 11:33:23;;;;;;;8.50;2.27;;;4.00;48.30;;;;;;5093372;28;20419;-54
2023/12/23 11:36:00;;;;;;;2.90;2.23;;;4.10;45.30;;;;;;5111238;28;20505;-54
2023/12/23 11:38:50;;;;;;;4.30;2.40;;;4.10;49.50;;;;;;5093696;28;20422;-53
2023/12/23 11:41:16;;;;;;;6.23;2.20;;;4.10;41.80;;;;;;5112429;28;20511;-53
2023/12/23 11:43:43;;;;;;;3.87;1.93;;;4.10;5.90;;;;;;5112346;28;20411;-53
2023/12/23 11:46:09;;;;;;;6.50;2.10;;;4.00;6.00;;;;;;5111467;28;20764;-53
2023/12/23 11:48:35;;;;;;;4.30;1.90;;;4.00;8.60;;;;;;5111291;28;20440;-53
2023/12/23 11:51:01;;;;;;;3.90;1.87;;;3.90;1.00;;;;;;5112586;28;20187;-53
2023/12/23 11:53:27;;;;;;;4.10;1.80;;;4.00;7.30;;;;;;5111515;28;20183;-52
2023/12/23 11:55:52;;;;;;;1.93;1.53;;;4.00;18.30;;;;;;5111807;28;20185;-53
2023/12/23 11:58:18;;;;;;;2.30;1.80;;;4.00;26.20;;;;;;5110853;28;20190;-52
2023/12/23 12:00:51;;;;;;;2.87;1.47;;;4.10;39.30;;;;;;5111080;28;20227;-51
2023/12/23 12:03:17;;;;;;;2.90;2.17;;;4.10;30.50;;;;;;5112691;28;20166;-52
2023/12/23 12:05:43;;;;;;;4.67;1.90;;;4.20;47.20;;;;;;5092511;28;20432;-52
2023/12/23 12:08:09;;;;;;;2.40;1.70;;;4.20;26.30;;;;;;5110493;28;20466;-52
2023/12/23 12:10:34;;;;;;;3.17;2.00;;;4.20;20.30;;;;;;5111675;28;20187;-51
2023/12/23 12:13:00;;;;;;;4.03;1.80;;;4.20;1.00;;;;;;5111808;28;20211;-50
2023/12/23 12:15:26;;;;;;;2.10;1.80;;;4.20;1.00;;;;;;5111320;28;20212;-50
2023/12/23 12:17:52;;;;;;;3.10;2.30;;;4.20;1.00;;;;;;5110714;28;20193;-51
2023/12/23 12:20:18;;;;;;;3.30;1.80;;;4.20;1.00;;;;;;5111331;28;20214;-51
2023/12/23 12:22:45;;;;;;;6.20;2.03;;;4.30;1.00;;;;;;5111481;28;20769;-51
2023/12/23 12:25:11;;;;;;;2.27;1.70;;;4.30;1.00;;;;;;5111496;28;20430;-51
2023/12/23 12:27:38;;;;;;;6.87;1.70;;;4.30;1.00;;;;;;5111393;28;20409;-51
2023/12/23 12:30:10;;;;;;;5.20;1.73;;;4.30;1.00;;;;;;5111871;28;20421;-51
2023/12/23 12:32:42;;;;;;;2.57;1.40;;;4.40;1.00;;;;;;5111064;28;20414;-51
2023/12/23 12:35:10;;;;;;;3.90;1.20;;;4.30;1.00;;;;;;5110446;28;20417;-51
2023/12/23 12:37:36;;;;;;;6.13;1.70;;;4.40;1.00;;;;;;5111683;28;20442;-51
2023/12/23 12:40:01;;;;;;;4.87;1.27;;;4.40;1.00;;;;;;5110003;28;20979;-51
2023/12/23 12:42:27;;;;;;;7.23;1.40;;;4.40;1.00;;;;;;5093597;28;20704;-51
2023/12/23 12:45:00;;;;;;;1.87;1.10;;;4.30;1.00;;;;;;5112262;28;20651;-51
2023/12/23 12:47:28;;;;;;;4.60;1.03;;;4.30;1.00;;;;;;5109954;28;20618;-50
2023/12/23 12:50:00;;;;;;;5.47;1.07;;;4.30;1.00;;;;;;5110771;28;20429;-51
2023/12/23 12:52:27;;;;;;;4.20;1.17;;;4.30;1.00;;;;;;5111925;28;20959;-50
2023/12/23 12:54:55;;;;;;;3.27;1.30;;;4.40;10.30;;;;;;5111896;28;20439;-52